Terminal Aerodrome Forecast
Issued by NWS

Home | Current Version | Previous Version | Text Only | Print | Product List | Glossary On
Versions: 1 2 3 4 5 6 7 8 9 10 11 12 13 14 15
130
FTUS43 KAPX 261121
TAFAPN
TAF
KAPN 261121Z 2612/2712 16004KT P6SM VCSH OVC120
     FM261400 19006KT P6SM SCT040 BKN140
     FM262000 19007KT P6SM VCTS BKN050CB
     FM270000 18005KT P6SM BKN080
     FM270200 19004KT P6SM SCT250
     FM270500 00000KT 3SM BR SCT200
     FM270900 00000KT 2SM BR SCT010=

USA.gov is the U.S. government's official web portal to all federal, state and local government web resources and services.